sensor_id;sensor_type;location;lat;lon;timestamp;pressure;altitude;pressure_sealevel;temperature;humidity
67980;BME280;54760;47.490;19.030;2023-03-25T08:12:21;99358.84;;;25.72;32.19
67980;BME280;54760;47.490;19.030;2023-03-25T08:14:46;99371.72;;;24.46;33.61
67980;BME280;54760;47.490;19.030;2023-03-25T08:17:12;99376.81;;;24.29;32.86
67980;BME280;54760;47.490;19.030;2023-03-25T08:19:37;99386.91;;;22.56;36.38
67980;BME280;54760;47.490;19.030;2023-03-25T08:22:03;99389.16;;;21.42;39.13
67980;BME280;54760;47.490;19.030;2023-03-25T08:24:28;99378.03;;;21.31;38.97
67980;BME280;54760;47.490;19.030;2023-03-25T08:26:57;99372.34;;;22.74;35.72
67980;BME280;54760;47.490;19.030;2023-03-25T08:29:25;99368.59;;;23.74;34.01
67980;BME280;54760;47.490;19.030;2023-03-25T08:31:51;99358.84;;;25.59;30.56
67980;BME280;54760;47.490;19.030;2023-03-25T08:34:18;99360.59;;;25.04;31.11
67980;BME280;54760;47.490;19.030;2023-03-25T08:36:44;99357.22;;;25.77;29.75
67980;BME280;54760;47.490;19.030;2023-03-25T08:39:10;99363.19;;;24.20;32.66
67980;BME280;54760;47.490;19.030;2023-03-25T08:41:37;99354.25;;;27.26;28.37
67980;BME280;54760;47.490;19.030;2023-03-25T08:44:04;99357.84;;;27.54;27.10
67980;BME280;54760;47.490;19.030;2023-03-25T08:46:30;99359.78;;;27.67;27.59
67980;BME280;54760;47.490;19.030;2023-03-25T08:48:55;99352.06;;;26.49;27.85
67980;BME280;54760;47.490;19.030;2023-03-25T08:51:21;99349.69;;;26.73;28.02
67980;BME280;54760;47.490;19.030;2023-03-25T08:53:46;99350.00;;;29.23;24.79
67980;BME280;54760;47.490;19.030;2023-03-25T08:56:12;99344.91;;;28.69;25.42
67980;BME280;54760;47.490;19.030;2023-03-25T08:58:37;99348.41;;;28.24;25.21
67980;BME280;54760;47.490;19.030;2023-03-25T09:01:03;99342.97;;;27.46;26.63
67980;BME280;54760;47.490;19.030;2023-03-25T09:03:29;99337.44;;;26.84;27.70
67980;BME280;54760;47.490;19.030;2023-03-25T09:05:54;99344.28;;;26.76;28.99
67980;BME280;54760;47.490;19.030;2023-03-25T09:08:20;99339.88;;;24.11;31.74
67980;BME280;54760;47.490;19.030;2023-03-25T09:10:46;99336.44;;;26.53;28.59
67980;BME280;54760;47.490;19.030;2023-03-25T09:13:12;99337.03;;;28.52;25.85
67980;BME280;54760;47.490;19.030;2023-03-25T09:15:37;99348.13;;;27.06;27.04
67980;BME280;54760;47.490;19.030;2023-03-25T09:18:03;99336.09;;;28.65;25.04
67980;BME280;54760;47.490;19.030;2023-03-25T09:20:29;99342.69;;;29.36;25.24
67980;BME280;54760;47.490;19.030;2023-03-25T09:22:55;99328.53;;;30.46;22.40
67980;BME280;54760;47.490;19.030;2023-03-25T09:25:21;99332.84;;;30.47;22.98
67980;BME280;54760;47.490;19.030;2023-03-25T09:27:47;99346.34;;;32.26;20.64
67980;BME280;54760;47.490;19.030;2023-03-25T09:30:13;99336.06;;;32.04;20.69
67980;BME280;54760;47.490;19.030;2023-03-25T09:32:39;99330.91;;;31.07;21.59
67980;BME280;54760;47.490;19.030;2023-03-25T09:35:05;99332.47;;;29.63;23.44
67980;BME280;54760;47.490;19.030;2023-03-25T09:37:31;99331.63;;;28.92;23.75
67980;BME280;54760;47.490;19.030;2023-03-25T09:39:56;99339.00;;;29.81;22.31
67980;BME280;54760;47.490;19.030;2023-03-25T09:45:14;99311.72;;;28.98;22.81
67980;BME280;54760;47.490;19.030;2023-03-25T09:47:51;99315.09;;;28.96;22.83
67980;BME280;54760;47.490;19.030;2023-03-25T09:50:20;99341.75;;;27.63;24.64
67980;BME280;54760;47.490;19.030;2023-03-25T09:55:27;99339.38;;;29.77;21.88
67980;BME280;54760;47.490;19.030;2023-03-25T09:58:01;99346.00;;;26.58;26.63
67980;BME280;54760;47.490;19.030;2023-03-25T10:00:29;99354.28;;;24.21;28.85
67980;BME280;54760;47.490;19.030;2023-03-25T10:03:04;99356.28;;;23.83;29.69
67980;BME280;54760;47.490;19.030;2023-03-25T10:13:56;99366.53;;;22.72;30.92
67980;BME280;54760;47.490;19.030;2023-03-25T10:16:35;99377.16;;;24.20;29.10
67980;BME280;54760;47.490;19.030;2023-03-25T10:19:34;99367.34;;;22.62;31.85
67980;BME280;54760;47.490;19.030;2023-03-25T10:22:10;99358.34;;;21.24;33.99
67980;BME280;54760;47.490;19.030;2023-03-25T10:24:43;99356.16;;;19.90;37.01
67980;BME280;54760;47.490;19.030;2023-03-25T10:27:38;99359.00;;;19.48;38.76
67980;BME280;54760;47.490;19.030;2023-03-25T10:30:17;99366.44;;;19.31;39.36
67980;BME280;54760;47.490;19.030;2023-03-25T10:32:56;99370.00;;;19.85;38.55
67980;BME280;54760;47.490;19.030;2023-03-25T10:35:47;99361.22;;;19.98;38.62
67980;BME280;54760;47.490;19.030;2023-03-25T10:38:21;99371.97;;;19.31;40.62
67980;BME280;54760;47.490;19.030;2023-03-25T10:43:46;99378.22;;;18.83;41.67
67980;BME280;54760;47.490;19.030;2023-03-25T10:48:40;99370.44;;;18.36;43.03
67980;BME280;54760;47.490;19.030;2023-03-25T10:51:10;99372.84;;;18.23;43.20
67980;BME280;54760;47.490;19.030;2023-03-25T10:53:36;99372.34;;;18.24;43.42
67980;BME280;54760;47.490;19.030;2023-03-25T10:56:31;99371.47;;;18.38;43.02
67980;BME280;54760;47.490;19.030;2023-03-25T10:59:03;99376.59;;;18.71;41.60
67980;BME280;54760;47.490;19.030;2023-03-25T11:01:39;99362.38;;;18.58;40.20
67980;BME280;54760;47.490;19.030;2023-03-25T11:04:08;99372.06;;;18.48;40.04
67980;BME280;54760;47.490;19.030;2023-03-25T11:06:38;99373.25;;;18.62;40.25
67980;BME280;54760;47.490;19.030;2023-03-25T11:11:43;99371.78;;;18.20;41.13
67980;BME280;54760;47.490;19.030;2023-03-25T11:14:12;99370.06;;;18.23;41.21
67980;BME280;54760;47.490;19.030;2023-03-25T11:16:54;99374.94;;;18.07;41.97
67980;BME280;54760;47.490;19.030;2023-03-25T11:19:36;99374.09;;;18.22;41.75
67980;BME280;54760;47.490;19.030;2023-03-25T11:22:26;99379.72;;;17.87;42.01
67980;BME280;54760;47.490;19.030;2023-03-25T11:25:07;99379.81;;;17.72;42.83
67980;BME280;54760;47.490;19.030;2023-03-25T11:27:47;99368.78;;;19.07;39.94
67980;BME280;54760;47.490;19.030;2023-03-25T11:30:19;99376.06;;;19.41;38.35
67980;BME280;54760;47.490;19.030;2023-03-25T11:33:01;99369.75;;;20.81;35.67
67980;BME280;54760;47.490;19.030;2023-03-25T11:35:29;99354.25;;;22.04;32.35
67980;BME280;54760;47.490;19.030;2023-03-25T11:37:58;99371.50;;;20.56;34.63
67980;BME280;54760;47.490;19.030;2023-03-25T11:40:26;99364.62;;;19.65;36.23
67980;BME280;54760;47.490;19.030;2023-03-25T11:42:57;99378.47;;;18.54;37.61
67980;BME280;54760;47.490;19.030;2023-03-25T11:45:34;99374.66;;;17.85;38.90
67980;BME280;54760;47.490;19.030;2023-03-25T11:48:11;99379.94;;;17.83;39.18
67980;BME280;54760;47.490;19.030;2023-03-25T11:50:45;99380.34;;;17.76;39.59
67980;BME280;54760;47.490;19.030;2023-03-25T11:53:16;99378.50;;;17.67;39.54
67980;BME280;54760;47.490;19.030;2023-03-25T11:55:48;99384.78;;;17.33;40.20
67980;BME280;54760;47.490;19.030;2023-03-25T11:58:18;99378.34;;;17.42;40.66
67980;BME280;54760;47.490;19.030;2023-03-25T12:00:47;99370.66;;;17.86;39.76
67980;BME280;54760;47.490;19.030;2023-03-25T12:05:40;99384.63;;;18.17;37.94
67980;BME280;54760;47.490;19.030;2023-03-25T12:08:10;99364.94;;;18.62;36.93
67980;BME280;54760;47.490;19.030;2023-03-25T12:10:57;99371.47;;;18.90;36.39
67980;BME280;54760;47.490;19.030;2023-03-25T12:19:38;99382.88;;;17.39;38.91
67980;BME280;54760;47.490;19.030;2023-03-25T12:22:33;99394.53;;;17.28;39.60
67980;BME280;54760;47.490;19.030;2023-03-25T12:33:50;99351.06;;;16.65;40.36
67980;BME280;54760;47.490;19.030;2023-03-25T12:36:32;99348.62;;;16.87;40.20
67980;BME280;54760;47.490;19.030;2023-03-25T12:42:15;99345.28;;;17.32;39.82
67980;BME280;54760;47.490;19.030;2023-03-25T12:47:36;99315.56;;;17.88;37.15
67980;BME280;54760;47.490;19.030;2023-03-25T12:52:53;99322.75;;;18.83;35.49
67980;BME280;54760;47.490;19.030;2023-03-25T13:01:14;99310.94;;;18.57;35.00
67980;BME280;54760;47.490;19.030;2023-03-25T13:06:37;99316.53;;;17.65;36.60
67980;BME280;54760;47.490;19.030;2023-03-25T13:09:17;99317.25;;;17.60;36.94
67980;BME280;54760;47.490;19.030;2023-03-25T13:11:54;99309.22;;;17.62;37.23
67980;BME280;54760;47.490;19.030;2023-03-25T13:14:35;99311.69;;;17.19;37.86
67980;BME280;54760;47.490;19.030;2023-03-25T13:17:07;99321.91;;;17.13;38.04
67980;BME280;54760;47.490;19.030;2023-03-25T13:19:36;99308.22;;;16.89;37.31
67980;BME280;54760;47.490;19.030;2023-03-25T13:22:28;99314.72;;;16.86;37.56
67980;BME280;54760;47.490;19.030;2023-03-25T13:25:02;99319.47;;;16.86;37.42
67980;BME280;54760;47.490;19.030;2023-03-25T13:27:34;99310.03;;;16.93;37.24
67980;BME280;54760;47.490;19.030;2023-03-25T13:30:01;99310.59;;;16.97;36.63
67980;BME280;54760;47.490;19.030;2023-03-25T13:32:39;99305.34;;;16.99;36.92
67980;BME280;54760;47.490;19.030;2023-03-25T13:35:26;99311.84;;;17.16;36.63
67980;BME280;54760;47.490;19.030;2023-03-25T13:38:00;99314.19;;;17.38;37.57
67980;BME280;54760;47.490;19.030;2023-03-25T13:40:29;99310.16;;;17.39;37.97
67980;BME280;54760;47.490;19.030;2023-03-25T13:45:49;99316.38;;;17.13;37.60
67980;BME280;54760;47.490;19.030;2023-03-25T13:48:31;99310.13;;;16.98;37.69
67980;BME280;54760;47.490;19.030;2023-03-25T13:51:02;99312.38;;;17.35;37.51
67980;BME280;54760;47.490;19.030;2023-03-25T13:53:30;99309.06;;;17.51;37.06
67980;BME280;54760;47.490;19.030;2023-03-25T13:56:01;99309.00;;;18.37;35.32
67980;BME280;54760;47.490;19.030;2023-03-25T14:06:46;99315.22;;;18.27;34.93
67980;BME280;54760;47.490;19.030;2023-03-25T14:12:35;99327.47;;;18.20;35.48
67980;BME280;54760;47.490;19.030;2023-03-25T14:15:09;99325.72;;;17.56;36.93
67980;BME280;54760;47.490;19.030;2023-03-25T14:17:38;99323.50;;;17.40;37.11
67980;BME280;54760;47.490;19.030;2023-03-25T14:20:06;99323.84;;;17.27;36.97
67980;BME280;54760;47.490;19.030;2023-03-25T14:22:39;99323.25;;;17.03;37.62
67980;BME280;54760;47.490;19.030;2023-03-25T14:25:20;99319.00;;;16.87;37.98
67980;BME280;54760;47.490;19.030;2023-03-25T14:27:51;99310.56;;;16.62;38.29
67980;BME280;54760;47.490;19.030;2023-03-25T14:30:20;99305.69;;;16.71;38.45
67980;BME280;54760;47.490;19.030;2023-03-25T14:32:47;99311.25;;;16.92;38.11
67980;BME280;54760;47.490;19.030;2023-03-25T14:48:28;99318.34;;;16.04;39.90
67980;BME280;54760;47.490;19.030;2023-03-25T14:51:16;99316.25;;;16.14;39.71
67980;BME280;54760;47.490;19.030;2023-03-25T14:53:53;99314.91;;;15.95;40.02
67980;BME280;54760;47.490;19.030;2023-03-25T14:56:24;99316.44;;;16.11;39.58
67980;BME280;54760;47.490;19.030;2023-03-25T14:58:57;99317.66;;;16.10;39.30
67980;BME280;54760;47.490;19.030;2023-03-25T15:01:35;99302.63;;;16.11;38.93
67980;BME280;54760;47.490;19.030;2023-03-25T15:06:39;99299.72;;;15.76;38.71
67980;BME280;54760;47.490;19.030;2023-03-25T15:09:08;99313.38;;;15.94;38.20
67980;BME280;54760;47.490;19.030;2023-03-25T15:11:39;99307.28;;;15.90;37.82
67980;BME280;54760;47.490;19.030;2023-03-25T15:14:14;99319.66;;;15.94;37.57
67980;BME280;54760;47.490;19.030;2023-03-25T15:19:14;99302.72;;;15.87;37.94
67980;BME280;54760;47.490;19.030;2023-03-25T15:24:28;99318.03;;;15.88;38.20
67980;BME280;54760;47.490;19.030;2023-03-25T15:26:58;99314.94;;;16.24;43.43
67980;BME280;54760;47.490;19.030;2023-03-25T15:29:43;99318.56;;;16.30;37.27
67980;BME280;54760;47.490;19.030;2023-03-25T15:43:30;99312.03;;;16.92;40.19
67980;BME280;54760;47.490;19.030;2023-03-25T15:54:53;99312.44;;;15.97;37.87
67980;BME280;54760;47.490;19.030;2023-03-25T15:57:30;99297.00;;;16.05;39.47
67980;BME280;54760;47.490;19.030;2023-03-25T16:05:33;99294.50;;;15.78;38.98
67980;BME280;54760;47.490;19.030;2023-03-25T16:08:06;99289.53;;;15.67;38.05
67980;BME280;54760;47.490;19.030;2023-03-25T16:10:32;99305.59;;;15.69;37.57
67980;BME280;54760;47.490;19.030;2023-03-25T16:13:11;99294.88;;;15.71;37.06
67980;BME280;54760;47.490;19.030;2023-03-25T16:15:37;99295.31;;;15.93;43.28
67980;BME280;54760;47.490;19.030;2023-03-25T16:18:06;99305.28;;;16.05;35.84
67980;BME280;54760;47.490;19.030;2023-03-25T16:20:34;99309.38;;;15.95;35.91
67980;BME280;54760;47.490;19.030;2023-03-25T16:23:02;99299.66;;;15.85;36.31
67980;BME280;54760;47.490;19.030;2023-03-25T16:25:39;99303.91;;;15.47;37.65
67980;BME280;54760;47.490;19.030;2023-03-25T16:28:25;99305.72;;;15.74;36.98
67980;BME280;54760;47.490;19.030;2023-03-25T16:30:52;99305.59;;;16.07;39.24
67980;BME280;54760;47.490;19.030;2023-03-25T16:33:24;99304.81;;;16.07;35.19
67980;BME280;54760;47.490;19.030;2023-03-25T16:36:14;99309.63;;;15.68;36.77
67980;BME280;54760;47.490;19.030;2023-03-25T16:38:40;99320.16;;;15.69;36.27
67980;BME280;54760;47.490;19.030;2023-03-25T16:41:09;99312.47;;;15.49;39.48
67980;BME280;54760;47.490;19.030;2023-03-25T16:43:35;99320.72;;;15.26;36.78
67980;BME280;54760;47.490;19.030;2023-03-25T16:46:03;99314.00;;;15.27;37.16
67980;BME280;54760;47.490;19.030;2023-03-25T16:49:07;99320.22;;;15.36;37.48
67980;BME280;54760;47.490;19.030;2023-03-25T16:51:28;99327.78;;;15.27;38.64
67980;BME280;54760;47.490;19.030;2023-03-25T16:53:55;99330.59;;;15.17;37.34
67980;BME280;54760;47.490;19.030;2023-03-25T16:56:31;99328.88;;;15.20;37.06
67980;BME280;54760;47.490;19.030;2023-03-25T16:59:00;99330.19;;;15.10;37.44
67980;BME280;54760;47.490;19.030;2023-03-25T17:01:40;99329.44;;;15.00;37.71
67980;BME280;54760;47.490;19.030;2023-03-25T17:04:14;99329.97;;;14.90;38.21
67980;BME280;54760;47.490;19.030;2023-03-25T17:06:59;99333.50;;;14.90;38.98
67980;BME280;54760;47.490;19.030;2023-03-25T17:09:28;99326.88;;;14.97;38.32
67980;BME280;54760;47.490;19.030;2023-03-25T17:12:10;99324.09;;;14.97;38.25
67980;BME280;54760;47.490;19.030;2023-03-25T17:14:42;99326.28;;;14.93;38.42
67980;BME280;54760;47.490;19.030;2023-03-25T17:19:47;99327.81;;;14.94;38.55
67980;BME280;54760;47.490;19.030;2023-03-25T17:22:27;99327.34;;;14.53;39.37
67980;BME280;54760;47.490;19.030;2023-03-25T17:24:58;99332.53;;;14.60;39.34
67980;BME280;54760;47.490;19.030;2023-03-25T17:27:36;99338.34;;;14.53;39.77
67980;BME280;54760;47.490;19.030;2023-03-25T17:30:21;99344.13;;;14.64;39.47
67980;BME280;54760;47.490;19.030;2023-03-25T17:33:11;99336.50;;;14.59;39.60
67980;BME280;54760;47.490;19.030;2023-03-25T17:35:38;99339.31;;;14.41;40.11
67980;BME280;54760;47.490;19.030;2023-03-25T17:38:04;99337.31;;;14.42;40.09
67980;BME280;54760;47.490;19.030;2023-03-25T17:40:30;99348.78;;;14.31;40.36
67980;BME280;54760;47.490;19.030;2023-03-25T17:42:56;99343.28;;;14.40;40.23
67980;BME280;54760;47.490;19.030;2023-03-25T17:45:23;99357.38;;;13.97;41.04
67980;BME280;54760;47.490;19.030;2023-03-25T17:47:49;99347.88;;;14.25;40.55
67980;BME280;54760;47.490;19.030;2023-03-25T17:50:22;99353.66;;;14.27;40.60
67980;BME280;54760;47.490;19.030;2023-03-25T17:52:48;99349.38;;;14.35;40.37
67980;BME280;54760;47.490;19.030;2023-03-25T17:55:14;99358.56;;;14.23;40.57
67980;BME280;54760;47.490;19.030;2023-03-25T17:57:39;99365.47;;;13.91;41.19
67980;BME280;54760;47.490;19.030;2023-03-25T18:00:11;99362.88;;;14.15;40.77
67980;BME280;54760;47.490;19.030;2023-03-25T18:02:39;99370.38;;;14.05;41.02
67980;BME280;54760;47.490;19.030;2023-03-25T18:05:06;99363.16;;;13.99;41.09
67980;BME280;54760;47.490;19.030;2023-03-25T18:07:31;99368.97;;;14.10;40.92
67980;BME280;54760;47.490;19.030;2023-03-25T18:09:57;99381.22;;;14.09;41.02
67980;BME280;54760;47.490;19.030;2023-03-25T18:12:23;99378.31;;;13.94;41.34
67980;BME280;54760;47.490;19.030;2023-03-25T18:14:48;99377.69;;;13.72;41.94
67980;BME280;54760;47.490;19.030;2023-03-25T18:17:14;99392.91;;;13.55;42.37
67980;BME280;54760;47.490;19.030;2023-03-25T18:19:39;99393.09;;;13.60;42.59
67980;BME280;54760;47.490;19.030;2023-03-25T18:22:07;99395.81;;;13.51;42.64
67980;BME280;54760;47.490;19.030;2023-03-25T18:24:33;99395.19;;;13.38;42.95
67980;BME280;54760;47.490;19.030;2023-03-25T18:26:58;99401.84;;;13.19;43.38
67980;BME280;54760;47.490;19.030;2023-03-25T18:29:26;99410.09;;;13.19;43.25
67980;BME280;54760;47.490;19.030;2023-03-25T18:31:53;99402.28;;;13.17;43.34
67980;BME280;54760;47.490;19.030;2023-03-25T18:34:19;99406.47;;;13.40;42.94
67980;BME280;54760;47.490;19.030;2023-03-25T18:36:47;99400.91;;;13.13;43.38
67980;BME280;54760;47.490;19.030;2023-03-25T18:39:15;99408.25;;;13.25;43.20
67980;BME280;54760;47.490;19.030;2023-03-25T18:41:41;99399.63;;;13.44;43.09
67980;BME280;54760;47.490;19.030;2023-03-25T18:44:07;99398.53;;;13.33;43.19
67980;BME280;54760;47.490;19.030;2023-03-25T18:46:33;99409.72;;;13.08;43.68
67980;BME280;54760;47.490;19.030;2023-03-25T18:48:58;99420.44;;;13.15;43.59
67980;BME280;54760;47.490;19.030;2023-03-25T18:51:29;99418.62;;;13.21;43.54
67980;BME280;54760;47.490;19.030;2023-03-25T18:53:55;99423.84;;;13.19;43.87
67980;BME280;54760;47.490;19.030;2023-03-25T18:56:21;99430.94;;;13.38;43.73
67980;BME280;54760;47.490;19.030;2023-03-25T18:58:47;99433.19;;;13.30;44.15
67980;BME280;54760;47.490;19.030;2023-03-25T19:01:13;99432.38;;;13.21;44.58
67980;BME280;54760;47.490;19.030;2023-03-25T19:03:43;99438.34;;;13.19;44.88
67980;BME280;54760;47.490;19.030;2023-03-25T19:06:11;99437.69;;;13.15;45.05
67980;BME280;54760;47.490;19.030;2023-03-25T19:08:37;99442.06;;;13.03;45.39
67980;BME280;54760;47.490;19.030;2023-03-25T19:11:05;99443.84;;;12.97;45.64
67980;BME280;54760;47.490;19.030;2023-03-25T19:13:31;99441.06;;;12.88;45.82
67980;BME280;54760;47.490;19.030;2023-03-25T19:15:56;99446.41;;;12.92;45.54
67980;BME280;54760;47.490;19.030;2023-03-25T19:18:24;99450.34;;;12.91;45.50
67980;BME280;54760;47.490;19.030;2023-03-25T19:20:51;99452.91;;;12.85;45.77
67980;BME280;54760;47.490;19.030;2023-03-25T19:23:17;99451.13;;;12.91;46.05
67980;BME280;54760;47.490;19.030;2023-03-25T19:25:43;99459.69;;;12.93;46.03
67980;BME280;54760;47.490;19.030;2023-03-25T19:28:10;99456.66;;;12.70;46.96
67980;BME280;54760;47.490;19.030;2023-03-25T19:30:36;99465.78;;;12.88;47.40
67980;BME280;54760;47.490;19.030;2023-03-25T19:33:02;99461.00;;;12.58;49.08
67980;BME280;54760;47.490;19.030;2023-03-25T19:35:28;99467.87;;;12.63;49.05
67980;BME280;54760;47.490;19.030;2023-03-25T19:37:54;99459.97;;;12.65;49.76
67980;BME280;54760;47.490;19.030;2023-03-25T19:40:23;99469.28;;;12.67;49.88
67980;BME280;54760;47.490;19.030;2023-03-25T19:42:52;99466.84;;;12.47;50.60
67980;BME280;54760;47.490;19.030;2023-03-25T19:45:18;99479.25;;;12.52;51.36
67980;BME280;54760;47.490;19.030;2023-03-25T19:47:44;99483.47;;;12.44;53.58
67980;BME280;54760;47.490;19.030;2023-03-25T19:50:15;99484.53;;;12.25;54.94
67980;BME280;54760;47.490;19.030;2023-03-25T19:52:42;99486.12;;;12.35;55.33
67980;BME280;54760;47.490;19.030;2023-03-25T19:55:08;99477.41;;;12.14;56.87
67980;BME280;54760;47.490;19.030;2023-03-25T19:57:34;99489.69;;;12.23;57.29
67980;BME280;54760;47.490;19.030;2023-03-25T20:00:01;99476.31;;;12.12;58.13
67980;BME280;54760;47.490;19.030;2023-03-25T20:02:43;99484.09;;;12.13;58.38
67980;BME280;54760;47.490;19.030;2023-03-25T20:05:09;99489.84;;;12.06;58.76
67980;BME280;54760;47.490;19.030;2023-03-25T20:07:40;99497.53;;;12.11;58.86
67980;BME280;54760;47.490;19.030;2023-03-25T20:10:08;99490.41;;;12.01;58.50
67980;BME280;54760;47.490;19.030;2023-03-25T20:12:35;99483.16;;;11.95;58.11
67980;BME280;54760;47.490;19.030;2023-03-25T20:15:02;99495.34;;;11.94;57.83
67980;BME280;54760;47.490;19.030;2023-03-25T20:17:28;99477.34;;;11.93;57.31
67980;BME280;54760;47.490;19.030;2023-03-25T20:19:53;99473.09;;;11.79;56.95
67980;BME280;54760;47.490;19.030;2023-03-25T20:22:19;99470.06;;;11.77;55.58
67980;BME280;54760;47.490;19.030;2023-03-25T20:24:44;99481.13;;;11.86;53.25
67980;BME280;54760;47.490;19.030;2023-03-25T20:27:10;99475.41;;;11.81;52.29
67980;BME280;54760;47.490;19.030;2023-03-25T20:29:36;99490.19;;;11.83;51.95
67980;BME280;54760;47.490;19.030;2023-03-25T20:32:04;99497.87;;;11.88;51.13
67980;BME280;54760;47.490;19.030;2023-03-25T20:34:29;99496.00;;;11.98;49.95
67980;BME280;54760;47.490;19.030;2023-03-25T20:36:56;99506.31;;;11.94;49.44
67980;BME280;54760;47.490;19.030;2023-03-25T20:39:22;99513.13;;;11.89;48.95
67980;BME280;54760;47.490;19.030;2023-03-25T20:41:49;99508.19;;;11.97;48.60
67980;BME280;54760;47.490;19.030;2023-03-25T20:44:15;99502.94;;;11.90;48.69
67980;BME280;54760;47.490;19.030;2023-03-25T20:46:40;99504.59;;;11.87;48.83
67980;BME280;54760;47.490;19.030;2023-03-25T20:49:08;99508.63;;;11.95;48.59
67980;BME280;54760;47.490;19.030;2023-03-25T20:51:36;99518.06;;;11.94;48.69
67980;BME280;54760;47.490;19.030;2023-03-25T20:54:02;99529.25;;;12.00;48.24
67980;BME280;54760;47.490;19.030;2023-03-25T20:56:28;99530.22;;;12.06;48.25
67980;BME280;54760;47.490;19.030;2023-03-25T20:58:53;99531.00;;;12.06;47.83
67980;BME280;54760;47.490;19.030;2023-03-25T21:01:19;99528.34;;;12.15;47.65
67980;BME280;54760;47.490;19.030;2023-03-25T21:03:47;99533.19;;;11.99;48.42
67980;BME280;54760;47.490;19.030;2023-03-25T21:06:13;99528.37;;;11.65;49.37
67980;BME280;54760;47.490;19.030;2023-03-25T21:08:41;99524.34;;;11.82;49.11
67980;BME280;54760;47.490;19.030;2023-03-25T21:11:06;99535.72;;;11.93;48.93
67980;BME280;54760;47.490;19.030;2023-03-25T21:13:32;99534.50;;;11.69;49.42
67980;BME280;54760;47.490;19.030;2023-03-25T21:15:59;99529.78;;;11.69;49.58
67980;BME280;54760;47.490;19.030;2023-03-25T21:18:26;99533.97;;;11.74;49.53
67980;BME280;54760;47.490;19.030;2023-03-25T21:20:55;99530.78;;;11.63;50.15
67980;BME280;54760;47.490;19.030;2023-03-25T21:23:21;99536.94;;;11.67;50.02
67980;BME280;54760;47.490;19.030;2023-03-25T21:25:53;99539.09;;;11.59;50.28
67980;BME280;54760;47.490;19.030;2023-03-25T21:28:19;99538.00;;;11.44;50.83
67980;BME280;54760;47.490;19.030;2023-03-25T21:30:46;99536.59;;;11.52;50.50
67980;BME280;54760;47.490;19.030;2023-03-25T21:33:13;99538.09;;;11.28;51.00
67980;BME280;54760;47.490;19.030;2023-03-25T21:35:43;99549.16;;;11.24;51.27
67980;BME280;54760;47.490;19.030;2023-03-25T21:38:09;99538.78;;;11.32;50.97
67980;BME280;54760;47.490;19.030;2023-03-25T21:40:35;99548.31;;;11.27;51.28
67980;BME280;54760;47.490;19.030;2023-03-25T21:43:00;99552.34;;;11.23;51.31
67980;BME280;54760;47.490;19.030;2023-03-25T21:45:26;99556.84;;;11.29;51.16
67980;BME280;54760;47.490;19.030;2023-03-25T21:47:58;99558.72;;;11.33;51.29
67980;BME280;54760;47.490;19.030;2023-03-25T21:50:27;99541.75;;;11.38;50.96
67980;BME280;54760;47.490;19.030;2023-03-25T21:52:54;99552.91;;;11.30;51.23
67980;BME280;54760;47.490;19.030;2023-03-25T21:55:20;99554.19;;;11.13;51.68
67980;BME280;54760;47.490;19.030;2023-03-25T21:57:46;99546.28;;;11.15;51.94
67980;BME280;54760;47.490;19.030;2023-03-25T22:00:16;99552.66;;;11.12;51.64
67980;BME280;54760;47.490;19.030;2023-03-25T22:02:43;99551.31;;;11.04;51.96
67980;BME280;54760;47.490;19.030;2023-03-25T22:05:13;99554.28;;;11.10;51.92
67980;BME280;54760;47.490;19.030;2023-03-25T22:07:40;99555.34;;;11.00;52.31
67980;BME280;54760;47.490;19.030;2023-03-25T22:10:08;99550.69;;;11.13;52.14
67980;BME280;54760;47.490;19.030;2023-03-25T22:12:34;99540.28;;;10.79;53.27
67980;BME280;54760;47.490;19.030;2023-03-25T22:15:01;99549.34;;;10.76;53.52
67980;BME280;54760;47.490;19.030;2023-03-25T22:17:27;99540.75;;;10.90;53.20
67980;BME280;54760;47.490;19.030;2023-03-25T22:19:52;99557.25;;;10.74;53.80
67980;BME280;54760;47.490;19.030;2023-03-25T22:22:19;99548.25;;;10.73;53.89
67980;BME280;54760;47.490;19.030;2023-03-25T22:24:46;99538.53;;;10.85;53.69
67980;BME280;54760;47.490;19.030;2023-03-25T22:27:13;99546.59;;;10.76;53.92
67980;BME280;54760;47.490;19.030;2023-03-25T22:29:43;99559.09;;;10.77;53.84
67980;BME280;54760;47.490;19.030;2023-03-25T22:32:09;99560.94;;;10.67;54.19
67980;BME280;54760;47.490;19.030;2023-03-25T22:34:35;99557.94;;;10.62;54.52
67980;BME280;54760;47.490;19.030;2023-03-25T22:37:00;99561.31;;;10.53;54.88
67980;BME280;54760;47.490;19.030;2023-03-25T22:39:26;99559.09;;;10.48;55.17
67980;BME280;54760;47.490;19.030;2023-03-25T22:41:53;99562.75;;;10.41;55.53
67980;BME280;54760;47.490;19.030;2023-03-25T22:44:19;99560.94;;;10.67;54.76
67980;BME280;54760;47.490;19.030;2023-03-25T22:46:46;99558.50;;;10.40;55.60
67980;BME280;54760;47.490;19.030;2023-03-25T22:49:12;99556.78;;;10.47;55.55
67980;BME280;54760;47.490;19.030;2023-03-25T22:51:37;99547.62;;;10.37;55.91
67980;BME280;54760;47.490;19.030;2023-03-25T22:54:03;99559.59;;;10.43;55.82
67980;BME280;54760;47.490;19.030;2023-03-25T22:56:30;99548.88;;;10.20;56.55
67980;BME280;54760;47.490;19.030;2023-03-25T22:59:06;99562.12;;;10.21;56.56
67980;BME280;54760;47.490;19.030;2023-03-25T23:01:32;99551.59;;;10.20;56.70
67980;BME280;54760;47.490;19.030;2023-03-25T23:03:58;99553.38;;;10.26;56.47
67980;BME280;54760;47.490;19.030;2023-03-25T23:06:25;99546.47;;;10.22;56.50
67980;BME280;54760;47.490;19.030;2023-03-25T23:08:51;99559.81;;;10.20;56.71
67980;BME280;54760;47.490;19.030;2023-03-25T23:11:23;99559.47;;;10.18;56.86
67980;BME280;54760;47.490;19.030;2023-03-25T23:14:02;99566.63;;;9.95;57.71
67980;BME280;54760;47.490;19.030;2023-03-25T23:16:31;99569.16;;;10.02;57.58